createdAt,value
2023-01-11T00:00:50.166Z,4
2023-01-11T00:03:19.982Z,4
2023-01-11T00:05:49.866Z,4
2023-01-11T00:08:19.483Z,4
2023-01-11T00:10:49.153Z,8
2023-01-11T00:13:18.722Z,6
2023-01-11T00:15:47.770Z,4
2023-01-11T00:18:17.313Z,4
2023-01-11T00:20:46.825Z,8
2023-01-11T00:23:16.438Z,8
2023-01-11T00:25:46.013Z,4
2023-01-11T00:28:15.615Z,8
2023-01-11T00:30:45.287Z,4
2023-01-11T00:33:14.897Z,4
2023-01-11T00:35:44.252Z,8
2023-01-11T00:38:13.969Z,8
2023-01-11T00:40:43.458Z,8
2023-01-11T00:43:13.232Z,8
2023-01-11T00:45:42.793Z,8
2023-01-11T00:48:12.527Z,12
2023-01-11T00:50:42.146Z,8
2023-01-11T00:53:11.455Z,12
2023-01-11T00:55:41.102Z,12
2023-01-11T00:58:10.342Z,12
2023-01-11T01:00:39.793Z,12
2023-01-11T01:03:09.463Z,12
2023-01-11T01:05:39.032Z,12
2023-01-11T01:08:08.786Z,12
2023-01-11T01:10:38.403Z,12
2023-01-11T01:13:08.164Z,15
2023-01-11T01:15:37.880Z,14
2023-01-11T01:18:07.543Z,12
2023-01-11T01:20:37.216Z,18
2023-01-11T01:23:06.596Z,14
2023-01-11T01:25:35.998Z,12
2023-01-11T01:28:05.594Z,12
2023-01-11T01:30:35.004Z,19
2023-01-11T01:33:04.542Z,12
2023-01-11T01:35:34.178Z,12
2023-01-11T01:38:03.953Z,20
2023-01-11T01:40:33.103Z,12
2023-01-11T01:43:02.744Z,16
2023-01-11T01:45:32.462Z,16
2023-01-11T01:48:01.895Z,12
2023-01-11T01:50:31.580Z,26
2023-01-11T01:53:01.259Z,16
2023-01-11T01:55:30.973Z,16
2023-01-11T01:58:00.652Z,15
2023-01-11T02:00:30.295Z,12
2023-01-11T02:03:00.128Z,12
2023-01-11T02:05:29.732Z,16
2023-01-11T02:07:59.530Z,16
2023-01-11T02:10:29.317Z,16
2023-01-11T02:12:59.049Z,12
2023-01-11T02:15:29.091Z,18
2023-01-11T02:17:58.921Z,16
2023-01-11T02:20:28.684Z,16
2023-01-11T02:22:58.492Z,16
2023-01-11T02:25:28.206Z,16
2023-01-11T02:27:58.014Z,20
2023-01-11T02:30:27.605Z,18
2023-01-11T02:32:57.203Z,16
2023-01-11T02:35:26.841Z,20
2023-01-11T02:37:56.514Z,18
2023-01-11T02:40:26.046Z,18
2023-01-11T02:42:55.582Z,16
2023-01-11T02:45:25.147Z,14
2023-01-11T02:47:54.699Z,20
2023-01-11T02:50:24.283Z,12
2023-01-11T02:52:53.853Z,16
2023-01-11T02:55:23.424Z,16
2023-01-11T02:57:53.044Z,16
2023-01-11T03:00:22.731Z,16
2023-01-11T03:02:52.084Z,16
2023-01-11T03:05:21.562Z,12
2023-01-11T03:07:51.080Z,12
2023-01-11T03:10:20.611Z,14
2023-01-11T03:12:50.319Z,10
2023-01-11T03:15:20.110Z,12
2023-01-11T03:17:49.794Z,10
2023-01-11T03:20:19.503Z,12
2023-01-11T03:22:49.229Z,12
2023-01-11T03:25:18.631Z,8
2023-01-11T03:27:48.369Z,10
2023-01-11T03:30:17.833Z,12
2023-01-11T03:32:47.505Z,8
2023-01-11T03:35:16.554Z,8
2023-01-11T03:37:45.580Z,8
2023-01-11T03:40:15.067Z,12
2023-01-11T03:42:44.771Z,8
2023-01-11T03:45:14.458Z,8
2023-01-11T03:47:44.169Z,8
2023-01-11T03:50:13.986Z,8
2023-01-11T03:52:43.690Z,6
2023-01-11T03:55:13.137Z,8
2023-01-11T03:57:42.706Z,6
2023-01-11T04:00:12.154Z,8
2023-01-11T04:02:41.875Z,12
2023-01-11T04:05:11.147Z,8
2023-01-11T04:07:40.714Z,8
2023-01-11T04:10:10.241Z,8
2023-01-11T04:12:39.856Z,8
2023-01-11T04:15:09.520Z,8
2023-01-11T04:17:38.882Z,8
2023-01-11T04:20:08.226Z,4
2023-01-11T04:22:37.760Z,8
2023-01-11T04:25:07.169Z,8
2023-01-11T04:27:36.840Z,6
2023-01-11T04:30:06.500Z,4
2023-01-11T04:32:36.159Z,8
2023-01-11T04:35:05.747Z,8
2023-01-11T04:37:35.523Z,8
2023-01-11T04:40:05.138Z,9
2023-01-11T04:42:34.842Z,5
2023-01-11T04:45:04.330Z,12
2023-01-11T04:47:34.046Z,8
2023-01-11T04:50:03.893Z,8
2023-01-11T04:52:33.303Z,8
2023-01-11T04:55:03.039Z,8
2023-01-11T04:57:32.658Z,8
2023-01-11T05:00:02.343Z,8
2023-01-11T05:02:32.022Z,10
2023-01-11T05:05:01.701Z,16
2023-01-11T05:07:31.482Z,12
2023-01-11T05:10:01.196Z,12
2023-01-11T05:12:30.984Z,20
2023-01-11T05:15:00.780Z,12
2023-01-11T05:17:30.632Z,16
2023-01-11T05:20:00.269Z,12
2023-01-11T05:22:29.994Z,12
2023-01-11T05:24:59.489Z,12
2023-01-11T05:27:29.188Z,12
2023-01-11T05:29:59.174Z,12
2023-01-11T05:32:28.937Z,8
2023-01-11T05:34:58.040Z,8
2023-01-11T05:37:27.573Z,16
2023-01-11T05:39:57.361Z,16
2023-01-11T05:42:26.974Z,14
2023-01-11T05:44:58.138Z,16
2023-01-11T05:47:26.415Z,14
2023-01-11T05:49:56.154Z,14
2023-01-11T06:05:37.398Z,12
2023-01-11T06:08:06.801Z,16
2023-01-11T06:10:36.308Z,16
2023-01-11T06:13:05.736Z,20
2023-01-11T06:15:35.422Z,12
2023-01-11T06:18:05.073Z,20
2023-01-11T06:20:34.771Z,20
2023-01-11T06:23:04.568Z,20
2023-01-11T06:25:33.773Z,20
2023-01-11T06:28:03.536Z,16
2023-01-11T06:30:33.241Z,16
2023-01-11T06:33:02.673Z,16
2023-01-11T06:35:32.479Z,12
2023-01-11T06:38:02.299Z,16
2023-01-11T06:40:31.942Z,18
2023-01-11T06:43:01.811Z,18
2023-01-11T06:45:31.212Z,18
2023-01-11T06:48:01.063Z,20
2023-01-11T06:50:30.803Z,24
2023-01-11T06:53:00.627Z,24
2023-01-11T06:55:30.477Z,20
2023-01-11T06:58:00.353Z,16
2023-01-11T07:00:30.134Z,18
2023-01-11T07:02:59.848Z,16
2023-01-11T07:05:29.662Z,16
2023-01-11T07:07:59.241Z,12
2023-01-11T07:10:29.396Z,16
2023-01-11T07:12:58.505Z,16
2023-01-11T07:15:31.478Z,16
2023-01-11T07:18:00.699Z,18
2023-01-11T07:20:30.519Z,13
2023-01-11T07:23:00.330Z,18
2023-01-11T07:25:30.044Z,22
2023-01-11T07:27:59.875Z,20
2023-01-11T07:30:29.690Z,22
2023-01-11T07:32:59.469Z,20
2023-01-11T07:35:38.769Z,20
2023-01-11T07:40:49.762Z,25
2023-01-11T07:43:17.412Z,26
2023-01-11T07:46:03.194Z,21
2023-01-11T07:51:03.408Z,24
2023-01-11T07:53:32.949Z,24
2023-01-11T07:58:37.220Z,24
2023-01-11T08:01:07.032Z,28
2023-01-11T08:03:36.219Z,26
2023-01-11T08:06:05.786Z,26
2023-01-11T08:08:35.682Z,28
2023-01-11T08:11:05.675Z,28
2023-01-11T08:13:35.130Z,28
2023-01-11T08:16:05.134Z,24
2023-01-11T08:18:34.818Z,28
2023-01-11T08:21:04.785Z,24
2023-01-11T08:23:34.443Z,28
2023-01-11T08:26:04.277Z,32
2023-01-11T08:28:34.065Z,28
2023-01-11T08:31:03.977Z,32
2023-01-11T08:33:33.664Z,28
2023-01-11T08:36:07.068Z,28
2023-01-11T08:38:36.895Z,28
2023-01-11T08:41:06.735Z,27
2023-01-11T08:43:36.737Z,24
2023-01-11T08:46:06.337Z,28
2023-01-11T08:48:36.711Z,32
2023-01-11T08:51:06.553Z,28
2023-01-11T08:53:36.255Z,28
2023-01-11T08:56:05.985Z,28
2023-01-11T08:58:35.704Z,30
2023-01-11T09:01:04.820Z,26
2023-01-11T09:03:35.102Z,28
2023-01-11T09:06:04.849Z,28
2023-01-11T09:08:34.640Z,28
2023-01-11T09:11:04.456Z,32
2023-01-11T09:13:34.321Z,32
2023-01-11T09:16:04.964Z,28
2023-01-11T09:18:35.886Z,28
2023-01-11T09:21:06.588Z,28
2023-01-11T09:23:39.902Z,28
2023-01-11T09:26:10.064Z,29
2023-01-11T09:28:39.750Z,28
2023-01-11T09:31:09.438Z,28
2023-01-11T09:38:49.193Z,28
2023-01-11T09:41:19.357Z,28
2023-01-11T09:43:49.069Z,28
2023-01-11T09:46:19.374Z,35
2023-01-11T09:48:49.183Z,36
2023-01-11T09:51:19.829Z,28
2023-01-11T09:53:49.875Z,26
2023-01-11T09:56:19.967Z,28
2023-01-11T09:58:52.730Z,28
2023-01-11T10:01:22.507Z,28
2023-01-11T10:03:51.926Z,28
2023-01-11T10:06:23.160Z,28
2023-01-11T10:18:34.817Z,44
2023-01-11T10:19:17.915Z,36
2023-01-11T10:21:26.906Z,30
2023-01-11T10:23:56.658Z,28
2023-01-11T10:26:25.969Z,32
2023-01-11T10:28:55.742Z,28
2023-01-11T10:31:25.481Z,28
2023-01-11T10:33:55.025Z,27
2023-01-11T10:36:24.887Z,28
2023-01-11T10:38:55.291Z,28
2023-01-11T10:41:25.032Z,28
2023-01-11T10:43:54.826Z,29
2023-01-11T10:46:24.474Z,28
2023-01-11T10:48:54.287Z,36
2023-01-11T10:51:24.187Z,36
2023-01-11T10:53:54.036Z,36
2023-01-11T10:56:23.781Z,28
2023-01-11T10:58:54.266Z,31
2023-01-11T11:01:24.073Z,28
2023-01-11T11:03:58.257Z,28
2023-01-11T11:06:31.773Z,28
2023-01-11T11:09:02.175Z,28
2023-01-11T11:11:31.713Z,28
2023-01-11T11:14:01.436Z,24
2023-01-11T11:16:31.881Z,28
2023-01-11T11:19:01.579Z,28
2023-01-11T11:21:31.343Z,28
2023-01-11T11:24:01.216Z,28
2023-01-11T11:26:30.824Z,28
2023-01-11T11:29:00.517Z,28
2023-01-11T11:31:30.427Z,28
2023-01-11T11:33:59.967Z,28
2023-01-11T11:36:29.670Z,28
2023-01-11T11:38:59.319Z,32
2023-01-11T11:41:29.055Z,32
2023-01-11T11:43:59.413Z,32
2023-01-11T11:46:29.136Z,28
2023-01-11T11:49:02.246Z,28
2023-01-11T11:51:32.096Z,28
2023-01-11T11:54:02.444Z,28
2023-01-11T11:56:32.135Z,28
2023-01-11T11:59:02.585Z,28
2023-01-11T12:01:32.233Z,28
2023-01-11T12:04:02.126Z,24
2023-01-11T12:06:31.917Z,28
2023-01-11T12:09:01.655Z,28
2023-01-11T12:11:31.424Z,28
2023-01-11T12:14:04.701Z,28
2023-01-11T12:16:34.446Z,28
2023-01-11T12:19:04.116Z,28
2023-01-11T12:21:33.735Z,24
2023-01-11T12:24:03.513Z,28
2023-01-11T12:26:37.079Z,24
2023-01-11T12:29:07.401Z,24
2023-01-11T12:31:37.282Z,24
2023-01-11T12:34:07.168Z,20
2023-01-11T12:36:36.961Z,24
2023-01-11T12:39:06.772Z,24
2023-01-11T12:41:37.126Z,24
2023-01-11T12:44:06.846Z,24
2023-01-11T12:46:36.955Z,28
2023-01-11T12:49:06.829Z,24
2023-01-11T12:51:37.208Z,28
2023-01-11T12:54:06.990Z,22
2023-01-11T12:56:36.742Z,24
2023-01-11T12:59:06.525Z,28
2023-01-11T13:01:36.969Z,28
2023-01-11T13:04:07.238Z,26
2023-01-11T13:06:37.018Z,24
2023-01-11T13:09:07.424Z,26
2023-01-11T13:11:37.153Z,24
2023-01-11T13:14:07.043Z,24
2023-01-11T13:16:36.911Z,24
2023-01-11T13:19:07.180Z,25
2023-01-11T13:21:36.790Z,24
2023-01-11T13:24:06.605Z,27
2023-01-11T13:26:36.168Z,27
2023-01-11T13:29:06.609Z,24
2023-01-11T13:31:36.314Z,24
2023-01-11T13:34:06.741Z,24
2023-01-11T13:36:36.344Z,24
2023-01-11T13:39:06.746Z,25
2023-01-11T13:41:36.712Z,24
2023-01-11T13:44:06.604Z,20
2023-01-11T13:46:36.466Z,24
2023-01-11T13:49:06.775Z,20
2023-01-11T13:51:36.649Z,24
2023-01-11T13:54:07.089Z,24
2023-01-11T13:56:36.382Z,28
2023-01-11T13:59:06.187Z,28
2023-01-11T14:01:36.029Z,24
2023-01-11T14:04:06.318Z,24
2023-01-11T14:06:36.189Z,24
2023-01-11T14:09:06.610Z,24
2023-01-11T14:11:36.443Z,24
2023-01-11T14:14:06.121Z,24
2023-01-11T14:16:35.670Z,28
2023-01-11T14:19:05.665Z,24
2023-01-11T14:21:35.167Z,20
2023-01-11T14:24:04.650Z,20
2023-01-11T14:26:35.715Z,24
2023-01-11T14:29:05.425Z,24
2023-01-11T14:31:34.981Z,20
2023-01-11T14:34:04.384Z,20
2023-01-11T14:36:34.805Z,22
2023-01-11T14:39:04.431Z,24
2023-01-11T14:41:34.088Z,20
2023-01-11T14:44:03.718Z,20
2023-01-11T14:46:33.540Z,21
2023-01-11T14:49:03.254Z,20
2023-01-11T14:51:33.987Z,20
2023-01-11T14:54:03.236Z,22
2023-01-11T14:56:33.085Z,16
2023-01-11T14:59:03.474Z,16
2023-01-11T15:01:33.284Z,20
2023-01-11T15:04:03.707Z,21
2023-01-11T15:06:33.479Z,20
2023-01-11T15:09:03.846Z,20
2023-01-11T15:11:33.125Z,22
2023-01-11T15:14:02.467Z,24
2023-01-11T15:16:32.526Z,24
2023-01-11T15:19:01.506Z,22
2023-01-11T15:21:30.985Z,24
2023-01-11T15:24:00.505Z,22
2023-01-11T15:26:30.633Z,24
2023-01-11T15:29:00.993Z,19
2023-01-11T15:31:32.114Z,24
2023-01-11T15:33:59.990Z,24
2023-01-11T15:36:30.247Z,22
2023-01-11T15:39:00.144Z,24
2023-01-11T15:41:29.944Z,20
2023-01-11T15:43:59.678Z,24
2023-01-11T15:46:30.224Z,20
2023-01-11T15:48:59.851Z,21
2023-01-11T15:51:29.676Z,20
2023-01-11T15:54:00.091Z,16
2023-01-11T15:56:29.932Z,20
2023-01-11T15:59:03.657Z,28
2023-01-11T16:01:33.387Z,28
2023-01-11T16:04:03.223Z,24
2023-01-11T16:06:33.436Z,20
2023-01-11T16:09:03.228Z,24
2023-01-11T16:11:33.106Z,28
2023-01-11T16:14:02.772Z,24
2023-01-11T16:16:32.717Z,32
2023-01-11T16:19:02.374Z,24
2023-01-11T16:21:32.106Z,24
2023-01-11T16:24:01.924Z,24
2023-01-11T16:26:31.775Z,28
2023-01-11T16:29:01.586Z,26
2023-01-11T16:31:31.516Z,28
2023-01-11T16:34:01.276Z,26
2023-01-11T16:36:31.647Z,25
2023-01-11T16:39:01.299Z,28
2023-01-11T16:41:31.797Z,28
2023-01-11T16:44:01.591Z,32
2023-01-11T16:46:32.049Z,28
2023-01-11T16:49:01.705Z,28
2023-01-11T16:51:31.387Z,28
2023-01-11T16:54:01.255Z,32
2023-01-11T16:56:31.049Z,28
2023-01-11T16:59:01.504Z,30
2023-01-11T17:01:31.259Z,28
2023-01-11T17:04:04.861Z,35
2023-01-11T17:06:31.303Z,32
2023-01-11T17:09:01.310Z,34
2023-01-11T17:11:30.973Z,32
2023-01-11T17:14:00.633Z,28
2023-01-11T17:16:30.682Z,28
2023-01-11T17:19:00.230Z,32
2023-01-11T17:21:30.657Z,28
2023-01-11T17:24:00.406Z,30
2023-01-11T17:26:30.133Z,32
2023-01-11T17:29:00.428Z,32
2023-01-11T17:31:30.794Z,32
2023-01-11T17:34:00.558Z,34
2023-01-11T17:36:30.273Z,32
2023-01-11T17:39:00.130Z,36
2023-01-11T17:41:29.839Z,36
2023-01-11T17:43:59.597Z,36
2023-01-11T17:46:30.065Z,36
2023-01-11T17:48:59.766Z,32
2023-01-11T17:51:30.244Z,36
2023-01-11T17:53:59.876Z,36
2023-01-11T17:56:30.023Z,36
2023-01-11T17:58:59.693Z,37
2023-01-11T18:01:30.278Z,40
2023-01-11T18:04:00.042Z,40
2023-01-11T18:06:30.483Z,40
2023-01-11T18:09:00.174Z,40
2023-01-11T18:11:30.063Z,40
2023-01-11T18:14:00.447Z,40
2023-01-11T18:16:30.190Z,40
2023-01-11T18:19:00.555Z,40
2023-01-11T18:21:30.260Z,40
2023-01-11T18:24:00.036Z,40
2023-01-11T18:26:30.066Z,40
2023-01-11T18:28:59.766Z,40
2023-01-11T18:31:30.281Z,40
2023-01-11T18:34:00.041Z,40
2023-01-11T18:36:29.785Z,39
2023-01-11T18:39:11.199Z,36
2023-01-11T18:41:38.561Z,36
2023-01-11T18:46:42.899Z,36
2023-01-11T18:49:12.454Z,36
2023-01-11T18:51:42.235Z,33
2023-01-11T18:54:11.999Z,32
2023-01-11T18:56:41.747Z,32
2023-01-11T18:59:11.487Z,34
2023-01-11T19:01:54.270Z,32
2023-01-11T19:04:16.792Z,36
2023-01-11T19:06:47.175Z,36
2023-01-11T19:09:17.429Z,32
2023-01-11T19:11:47.189Z,36
2023-01-11T19:14:17.466Z,36
2023-01-11T19:16:47.207Z,36
2023-01-11T19:19:16.998Z,36
2023-01-11T19:21:47.524Z,33
2023-01-11T19:24:16.870Z,34
2023-01-11T19:26:47.213Z,36
2023-01-11T19:29:17.027Z,36
2023-01-11T19:31:46.843Z,36
2023-01-11T19:34:16.615Z,36
2023-01-11T19:36:46.508Z,36
2023-01-11T19:39:16.260Z,44
2023-01-11T19:41:45.954Z,43
2023-01-11T19:44:15.738Z,40
2023-01-11T19:46:45.738Z,40
2023-01-11T19:49:15.800Z,39
2023-01-11T19:51:45.407Z,40
2023-01-11T19:54:15.342Z,44
2023-01-11T19:56:45.522Z,40
2023-01-11T19:59:19.575Z,40
2023-01-11T20:01:50.119Z,40
2023-01-11T20:04:33.487Z,40
2023-01-11T20:07:06.746Z,40
2023-01-11T20:09:36.438Z,40
2023-01-11T20:12:06.259Z,36
2023-01-11T20:14:35.857Z,40
2023-01-11T20:17:05.417Z,36
2023-01-11T20:19:35.389Z,40
2023-01-11T20:22:05.181Z,40
2023-01-11T20:24:34.716Z,40
2023-01-11T20:27:05.067Z,40
2023-01-11T20:29:34.678Z,44
2023-01-11T20:32:24.958Z,53
2023-01-11T20:34:34.823Z,59
2023-01-11T20:37:04.534Z,44
2023-01-11T20:39:34.955Z,40
2023-01-11T20:42:04.741Z,44
2023-01-11T20:44:35.206Z,40
2023-01-11T20:47:04.973Z,40
2023-01-11T20:49:34.541Z,44
2023-01-11T20:52:04.342Z,40
2023-01-11T20:54:34.067Z,40
2023-01-11T20:57:03.857Z,41
2023-01-11T20:59:33.682Z,40
2023-01-11T21:02:03.414Z,44
2023-01-11T21:04:32.872Z,45
2023-01-11T21:07:02.479Z,44
2023-01-11T21:09:32.056Z,44
2023-01-11T21:12:01.754Z,44
2023-01-11T21:14:31.653Z,44
2023-01-11T21:17:01.194Z,47
2023-01-11T21:19:30.914Z,44
2023-01-11T21:22:02.243Z,44
2023-01-11T21:24:31.915Z,43
2023-01-11T21:27:02.324Z,41
2023-01-11T21:29:32.035Z,44
2023-01-11T21:32:02.471Z,52
2023-01-11T21:34:32.031Z,56
2023-01-11T21:37:01.685Z,51
2023-01-11T21:39:31.435Z,48
2023-01-11T21:42:01.080Z,48
2023-01-11T21:44:30.995Z,50
2023-01-11T21:47:01.081Z,44
2023-01-11T21:49:30.907Z,41
2023-01-11T21:52:01.396Z,44
2023-01-11T21:54:31.020Z,44
2023-01-11T21:57:00.765Z,44
2023-01-11T21:59:30.953Z,44
2023-01-11T22:02:00.747Z,41
2023-01-11T22:04:30.596Z,43
2023-01-11T22:07:00.816Z,47
2023-01-11T22:09:30.657Z,48
2023-01-11T22:12:01.139Z,48
2023-01-11T22:14:30.912Z,48
2023-01-11T22:17:02.519Z,51
2023-01-11T22:19:30.304Z,48
2023-01-11T22:22:00.694Z,52
2023-01-11T22:24:30.536Z,48
2023-01-11T22:27:01.010Z,56
2023-01-11T22:29:30.660Z,54
2023-01-11T22:32:00.492Z,56
2023-01-11T22:34:30.151Z,56
2023-01-11T22:36:59.897Z,56
2023-01-11T22:39:30.447Z,55
2023-01-11T22:42:00.289Z,60
2023-01-11T22:44:30.436Z,56
2023-01-11T22:47:01.711Z,56
2023-01-11T22:49:31.449Z,56
2023-01-11T22:52:01.802Z,52
2023-01-11T22:54:31.570Z,55
2023-01-11T22:57:02.032Z,56
2023-01-11T22:59:31.812Z,50
2023-01-11T23:02:01.647Z,50
2023-01-11T23:04:31.445Z,52
2023-01-11T23:07:01.886Z,45
2023-01-11T23:09:31.443Z,56
2023-01-11T23:12:01.220Z,52
2023-01-11T23:14:32.198Z,53
2023-01-11T23:17:01.965Z,58
2023-01-11T23:19:31.601Z,54
2023-01-11T23:22:01.322Z,52
2023-01-11T23:24:31.110Z,56
2023-01-11T23:27:01.134Z,59
2023-01-11T23:29:30.673Z,56
2023-01-11T23:32:00.614Z,51
2023-01-11T23:34:30.263Z,55
2023-01-11T23:37:00.119Z,58
2023-01-11T23:39:30.135Z,52
2023-01-11T23:41:59.840Z,51
2023-01-11T23:44:29.650Z,48
2023-01-11T23:46:59.359Z,46
2023-01-11T23:49:29.161Z,48
2023-01-11T23:51:58.977Z,48
2023-01-11T23:54:29.095Z,48
2023-01-11T23:56:58.847Z,45
2023-01-11T23:59:29.170Z,48
